createdAt,value
2023-01-09T00:00:31.576Z,1.60
2023-01-09T00:02:58.181Z,1.60
2023-01-09T00:05:24.816Z,1.50
2023-01-09T00:07:51.107Z,1.40
2023-01-09T00:10:18.560Z,1.30
2023-01-09T00:12:45.956Z,1.20
2023-01-09T00:15:12.280Z,1.20
2023-01-09T00:17:38.470Z,1.20
2023-01-09T00:20:06.496Z,1.30
2023-01-09T00:22:32.953Z,1.30
2023-01-09T00:24:59.139Z,1.20
2023-01-09T00:27:25.318Z,1.30
2023-01-09T00:29:51.585Z,1.30
2023-01-09T00:32:26.952Z,1.20
2023-01-09T00:34:53.455Z,1.10
2023-01-09T00:37:19.630Z,-1.40
2023-01-09T00:42:20.874Z,0.80
2023-01-09T00:44:55.470Z,0.70
2023-01-09T00:47:24.955Z,0.70
2023-01-09T00:49:52.471Z,0.70
2023-01-09T00:52:18.702Z,0.60
2023-01-09T00:54:45.040Z,0.60
2023-01-09T00:57:12.164Z,0.60
2023-01-09T00:59:43.491Z,0.70
2023-01-09T01:02:09.856Z,0.80
2023-01-09T01:04:54.988Z,0.80
2023-01-09T01:07:39.244Z,0.80
2023-01-09T01:10:07.965Z,0.70
2023-01-09T01:12:37.821Z,0.80
2023-01-09T01:15:05.317Z,0.80
2023-01-09T01:17:34.397Z,0.90
2023-01-09T01:20:01.057Z,0.70
2023-01-09T01:22:27.833Z,0.70
2023-01-09T01:24:54.089Z,0.80
2023-01-09T01:27:20.694Z,0.80
2023-01-09T01:29:47.064Z,0.90
2023-01-09T01:32:13.227Z,0.90
2023-01-09T01:34:39.446Z,0.80
2023-01-09T01:37:05.582Z,0.70
2023-01-09T01:39:32.804Z,0.80
2023-01-09T01:42:00.129Z,1.10
2023-01-09T01:45:02.846Z,0.90
2023-01-09T01:48:17.264Z,0.90
2023-01-09T01:51:05.947Z,0.90
2023-01-09T01:53:38.723Z,0.90
2023-01-09T01:56:53.069Z,1.00
2023-01-09T01:59:54.884Z,1.00
2023-01-09T02:02:24.108Z,1.00
2023-01-09T02:04:51.384Z,1.00
2023-01-09T02:07:17.545Z,1.10
2023-01-09T02:09:46.569Z,1.10
2023-01-09T02:12:31.681Z,1.20
2023-01-09T02:15:03.230Z,1.20
2023-01-09T02:18:24.494Z,1.30
2023-01-09T02:23:33.281Z,1.20
2023-01-09T02:26:23.474Z,1.20
2023-01-09T02:29:20.226Z,1.20
2023-01-09T02:31:59.228Z,1.20
2023-01-09T02:35:39.447Z,1.20
2023-01-09T02:41:42.937Z,1.20
2023-01-09T02:44:44.684Z,1.10
2023-01-09T02:47:45.844Z,1.10
2023-01-09T02:50:20.685Z,1.00
2023-01-09T02:53:03.064Z,1.20
2023-01-09T02:58:50.557Z,1.20
2023-01-09T03:03:03.467Z,1.20
2023-01-09T03:05:32.514Z,1.20
2023-01-09T03:08:04.005Z,1.10
2023-01-09T03:10:42.965Z,1.00
2023-01-09T03:13:10.791Z,1.00
2023-01-09T03:15:38.077Z,1.00
2023-01-09T03:18:05.181Z,1.10
2023-01-09T03:20:31.407Z,1.20
2023-01-09T03:23:00.501Z,1.10
2023-01-09T03:25:27.641Z,1.10
2023-01-09T03:28:05.332Z,1.10
2023-01-09T03:30:32.495Z,1.10
2023-01-09T03:32:58.709Z,1.10
2023-01-09T03:35:25.132Z,1.10
2023-01-09T03:37:51.392Z,1.10
2023-01-09T03:40:18.880Z,1.20
2023-01-09T03:42:46.769Z,1.30
2023-01-09T03:45:13.126Z,1.30
2023-01-09T03:47:40.267Z,1.40
2023-01-09T03:50:08.130Z,1.40
2023-01-09T03:52:35.334Z,1.50
2023-01-09T03:55:02.248Z,1.50
2023-01-09T03:57:28.412Z,1.50
2023-01-09T03:59:54.566Z,1.50
2023-01-09T04:02:20.683Z,1.50
2023-01-09T04:04:46.950Z,1.40
2023-01-09T04:07:13.165Z,1.50
2023-01-09T04:09:39.402Z,1.50
2023-01-09T04:12:06.615Z,1.40
2023-01-09T04:14:32.759Z,1.40
2023-01-09T04:16:58.890Z,1.70
2023-01-09T04:19:25.128Z,1.50
2023-01-09T04:21:51.249Z,1.50
2023-01-09T04:24:17.601Z,1.50
2023-01-09T04:26:43.912Z,1.50
2023-01-09T04:29:10.146Z,1.40
2023-01-09T04:31:36.500Z,1.40
2023-01-09T04:34:02.678Z,1.40
2023-01-09T04:36:28.882Z,1.40
2023-01-09T04:38:55.674Z,1.40
2023-01-09T04:41:40.186Z,1.50
2023-01-09T04:44:06.442Z,1.60
2023-01-09T04:46:32.579Z,1.60
2023-01-09T04:48:58.783Z,1.70
2023-01-09T04:51:25.294Z,1.80
2023-01-09T04:53:51.558Z,1.80
2023-01-09T04:56:17.886Z,1.70
2023-01-09T04:58:44.525Z,1.80
2023-01-09T05:01:10.811Z,1.70
2023-01-09T05:03:37.079Z,1.70
2023-01-09T05:06:03.699Z,1.70
2023-01-09T05:08:29.945Z,1.70
2023-01-09T05:10:56.098Z,1.70
2023-01-09T05:13:22.287Z,1.70
2023-01-09T05:15:48.432Z,3.20
2023-01-09T05:18:14.898Z,1.60
2023-01-09T05:20:41.141Z,1.60
2023-01-09T05:23:07.304Z,1.60
2023-01-09T05:25:34.565Z,1.60
2023-01-09T05:28:01.012Z,1.60
2023-01-09T05:30:28.597Z,1.60
2023-01-09T05:32:54.747Z,1.70
2023-01-09T05:35:20.931Z,1.70
2023-01-09T05:37:47.076Z,1.60
2023-01-09T05:40:13.459Z,1.60
2023-01-09T05:42:39.588Z,1.60
2023-01-09T05:45:06.935Z,1.60
2023-01-09T05:47:33.167Z,1.50
2023-01-09T05:49:59.706Z,1.50
2023-01-09T05:52:26.294Z,1.60
2023-01-09T05:54:52.565Z,1.60
2023-01-09T05:57:18.676Z,1.60
2023-01-09T05:59:45.256Z,1.60
2023-01-09T06:02:11.571Z,1.60
2023-01-09T06:04:37.929Z,1.60
2023-01-09T06:07:04.114Z,1.60
2023-01-09T06:09:30.854Z,1.60
2023-01-09T06:11:57.010Z,1.60
2023-01-09T06:14:23.306Z,1.50
2023-01-09T06:16:49.465Z,1.60
2023-01-09T06:19:15.776Z,1.50
2023-01-09T06:21:42.042Z,1.60
2023-01-09T06:24:09.044Z,1.60
2023-01-09T06:26:35.160Z,1.50
2023-01-09T06:29:01.595Z,1.60
2023-01-09T06:31:27.880Z,1.60
2023-01-09T06:33:54.249Z,1.70
2023-01-09T06:36:22.465Z,1.70
2023-01-09T06:38:49.043Z,1.80
2023-01-09T06:41:15.291Z,1.80
2023-01-09T06:43:41.465Z,1.90
2023-01-09T06:46:07.705Z,1.90
2023-01-09T06:48:33.950Z,1.90
2023-01-09T06:51:00.120Z,2.00
2023-01-09T06:53:26.519Z,1.90
2023-01-09T06:55:52.743Z,4.80
2023-01-09T06:58:20.108Z,1.90
2023-01-09T07:00:48.693Z,1.90
2023-01-09T07:03:19.176Z,1.70
2023-01-09T07:05:45.415Z,2.00
2023-01-09T07:08:11.787Z,2.00
2023-01-09T07:10:38.110Z,2.10
2023-01-09T07:13:04.351Z,2.20
2023-01-09T07:15:30.487Z,2.20
2023-01-09T07:17:56.698Z,2.20
2023-01-09T07:20:23.025Z,2.30
2023-01-09T07:22:49.335Z,2.30
2023-01-09T07:25:15.604Z,-0.40
2023-01-09T07:27:41.875Z,2.30
2023-01-09T07:30:09.312Z,2.30
2023-01-09T07:32:35.591Z,2.30
2023-01-09T07:35:01.829Z,2.30
2023-01-09T07:37:28.093Z,2.40
2023-01-09T07:39:54.375Z,2.20
2023-01-09T07:42:20.976Z,2.40
2023-01-09T07:44:48.161Z,2.40
2023-01-09T07:47:14.403Z,2.40
2023-01-09T07:49:40.695Z,2.50
2023-01-09T07:52:06.946Z,2.60
2023-01-09T07:54:33.280Z,2.60
2023-01-09T07:57:00.614Z,2.70
2023-01-09T07:59:29.010Z,2.70
2023-01-09T08:01:56.316Z,2.70
2023-01-09T08:04:23.037Z,2.80
2023-01-09T08:06:49.276Z,2.80
2023-01-09T08:09:15.954Z,2.90
2023-01-09T08:11:42.971Z,2.90
2023-01-09T08:14:09.621Z,3.00
2023-01-09T08:16:35.808Z,3.00
2023-01-09T08:19:02.188Z,3.10
2023-01-09T08:21:28.445Z,3.10
2023-01-09T08:23:55.002Z,3.10
2023-01-09T08:26:21.601Z,3.10
2023-01-09T08:28:47.897Z,3.10
2023-01-09T08:31:14.559Z,3.20
2023-01-09T08:33:40.838Z,3.20
2023-01-09T08:36:08.306Z,3.20
2023-01-09T08:38:34.560Z,3.20
2023-01-09T08:47:05.156Z,3.30
2023-01-09T08:49:33.015Z,3.40
2023-01-09T08:51:59.167Z,3.40
2023-01-09T08:54:25.479Z,3.50
2023-01-09T08:56:52.837Z,3.50
2023-01-09T08:59:19.320Z,3.50
2023-01-09T09:01:45.571Z,3.50
2023-01-09T09:04:11.921Z,3.60
2023-01-09T09:06:38.217Z,3.60
2023-01-09T09:09:07.432Z,3.60
2023-01-09T09:11:34.195Z,3.70
2023-01-09T09:14:00.520Z,3.80
2023-01-09T09:16:27.073Z,3.90
2023-01-09T09:18:53.589Z,4.00
2023-01-09T09:21:20.019Z,4.10
2023-01-09T09:23:46.550Z,4.20
2023-01-09T09:26:14.131Z,4.20
2023-01-09T09:28:40.751Z,4.30
2023-01-09T09:31:07.660Z,4.40
2023-01-09T09:33:34.043Z,4.60
2023-01-09T09:36:00.354Z,4.70
2023-01-09T09:38:27.346Z,4.70
2023-01-09T09:44:48.476Z,4.80
2023-01-09T09:47:42.927Z,4.90
2023-01-09T09:54:38.564Z,5.00
2023-01-09T09:57:05.299Z,5.10
2023-01-09T09:59:33.991Z,5.20
2023-01-09T10:02:49.750Z,5.30
2023-01-09T10:05:49.983Z,5.30
2023-01-09T10:09:13.678Z,5.30
2023-01-09T10:11:48.508Z,5.30
2023-01-09T10:14:23.730Z,5.30
2023-01-09T10:20:04.187Z,5.30
2023-01-09T10:24:06.394Z,5.40
2023-01-09T10:26:43.386Z,5.60
2023-01-09T10:29:36.815Z,5.80
2023-01-09T10:38:52.663Z,6.00
2023-01-09T10:41:30.920Z,6.20
2023-01-09T10:44:20.565Z,6.30
2023-01-09T10:46:53.738Z,6.40
2023-01-09T10:49:20.068Z,6.40
2023-01-09T10:52:04.922Z,6.40
2023-01-09T10:54:31.169Z,6.50
2023-01-09T10:57:15.638Z,6.50
2023-01-09T10:59:41.969Z,6.60
2023-01-09T11:02:27.772Z,6.60
2023-01-09T11:04:54.173Z,6.70
2023-01-09T11:07:27.837Z,6.70
2023-01-09T11:09:59.484Z,6.70
2023-01-09T11:12:35.749Z,6.70
2023-01-09T11:18:35.220Z,6.70
2023-01-09T11:21:39.850Z,6.80
2023-01-09T11:25:59.440Z,7.00
2023-01-09T11:28:26.279Z,7.20
2023-01-09T11:30:54.440Z,7.20
2023-01-09T11:33:34.611Z,5.00
2023-01-09T11:36:11.241Z,7.20
2023-01-09T11:38:52.159Z,7.20
2023-01-09T11:41:23.568Z,7.10
2023-01-09T11:43:51.295Z,7.10
2023-01-09T11:46:44.142Z,7.10
2023-01-09T11:49:29.678Z,7.00
2023-01-09T11:52:21.919Z,6.90
2023-01-09T11:54:55.736Z,6.90
2023-01-09T11:57:23.105Z,6.90
2023-01-09T11:59:49.938Z,7.00
2023-01-09T12:11:42.616Z,7.00
2023-01-09T12:15:49.693Z,7.00
2023-01-09T12:18:45.773Z,7.10
2023-01-09T12:21:21.473Z,7.10
2023-01-09T12:24:21.985Z,9.50
2023-01-09T12:27:28.111Z,7.20
2023-01-09T12:31:52.082Z,7.20
2023-01-09T12:34:35.216Z,7.20
2023-01-09T12:37:29.863Z,7.30
2023-01-09T12:44:07.321Z,7.30
2023-01-09T12:46:59.377Z,7.40
2023-01-09T12:49:35.800Z,7.40
2023-01-09T12:53:28.164Z,7.40
2023-01-09T12:56:03.383Z,7.30
2023-01-09T13:01:50.634Z,7.30
2023-01-09T13:04:24.031Z,7.40
2023-01-09T13:06:53.377Z,7.40
2023-01-09T13:10:27.147Z,7.40
2023-01-09T13:12:53.757Z,7.40
2023-01-09T13:15:28.696Z,7.40
2023-01-09T13:24:46.980Z,7.40
2023-01-09T13:27:18.949Z,7.30
2023-01-09T13:29:55.203Z,7.30
2023-01-09T13:34:21.866Z,7.30
2023-01-09T13:36:53.456Z,7.40
2023-01-09T13:39:37.967Z,7.50
2023-01-09T13:42:24.874Z,7.50
2023-01-09T13:44:54.051Z,7.60
2023-01-09T13:47:28.104Z,7.60
2023-01-09T13:50:19.500Z,7.70
2023-01-09T13:52:46.244Z,7.70
2023-01-09T13:55:35.526Z,7.70
2023-01-09T13:58:22.016Z,7.70
2023-01-09T14:00:49.808Z,7.70
2023-01-09T14:03:36.394Z,7.70
2023-01-09T14:06:11.471Z,7.70
2023-01-09T14:08:37.809Z,7.70
2023-01-09T14:11:04.722Z,7.70
2023-01-09T14:13:38.971Z,7.70
2023-01-09T14:16:26.528Z,7.70
2023-01-09T14:19:07.714Z,7.70
2023-01-09T14:21:54.974Z,7.60
2023-01-09T14:24:26.038Z,7.60
2023-01-09T14:26:59.304Z,7.60
2023-01-09T14:29:45.466Z,7.60
2023-01-09T14:34:30.789Z,7.60
2023-01-09T14:36:59.901Z,7.60
2023-01-09T14:39:26.502Z,7.60
2023-01-09T14:42:06.633Z,10.00
2023-01-09T14:45:02.616Z,7.50
2023-01-09T14:47:42.485Z,7.50
2023-01-09T14:50:26.751Z,7.40
2023-01-09T14:53:29.075Z,7.40
2023-01-09T14:55:59.815Z,7.40
2023-01-09T14:58:33.223Z,7.40
2023-01-09T15:01:05.084Z,7.40
2023-01-09T15:03:46.416Z,7.40
2023-01-09T15:06:20.794Z,7.60
2023-01-09T15:08:49.904Z,7.40
2023-01-09T15:11:16.374Z,7.30
2023-01-09T15:13:45.135Z,7.30
2023-01-09T15:16:19.851Z,7.30
2023-01-09T15:18:47.937Z,7.30
2023-01-09T15:21:21.414Z,7.30
2023-01-09T15:23:48.040Z,7.40
2023-01-09T15:26:29.227Z,7.40
2023-01-09T15:29:12.491Z,7.50
2023-01-09T15:31:39.113Z,7.40
2023-01-09T15:34:05.719Z,7.40
2023-01-09T15:36:32.194Z,7.30
2023-01-09T15:38:58.557Z,7.30
2023-01-09T15:41:47.848Z,7.30
2023-01-09T15:44:20.138Z,7.30
2023-01-09T15:46:49.333Z,7.30
2023-01-09T15:49:15.525Z,7.30
2023-01-09T15:51:42.916Z,7.30
2023-01-09T15:54:25.311Z,7.30
2023-01-09T15:56:51.569Z,7.30
2023-01-09T15:59:27.663Z,7.30
2023-01-09T16:02:19.568Z,7.20
2023-01-09T16:04:47.639Z,7.20
2023-01-09T16:07:15.425Z,7.10
2023-01-09T16:09:44.325Z,7.00
2023-01-09T16:12:27.594Z,7.00
2023-01-09T16:14:59.048Z,6.90
2023-01-09T16:17:26.072Z,6.80
2023-01-09T16:20:11.162Z,6.80
2023-01-09T16:22:51.020Z,6.90
2023-01-09T16:25:38.949Z,6.80
2023-01-09T16:28:23.822Z,6.80
2023-01-09T16:31:15.009Z,6.80
2023-01-09T16:33:49.431Z,6.80
2023-01-09T16:36:19.359Z,6.70
2023-01-09T16:38:46.680Z,6.60
2023-01-09T16:41:38.458Z,6.40
2023-01-09T16:44:09.169Z,6.30
2023-01-09T16:46:41.036Z,6.10
2023-01-09T16:50:11.568Z,6.00
2023-01-09T16:52:38.088Z,5.90
2023-01-09T16:55:05.854Z,5.90
2023-01-09T16:57:32.800Z,5.90
2023-01-09T16:59:59.643Z,5.90
2023-01-09T17:02:25.958Z,5.90
2023-01-09T17:04:54.642Z,5.90
2023-01-09T17:07:26.201Z,5.90
2023-01-09T17:09:52.749Z,5.90
2023-01-09T17:12:23.556Z,5.90
2023-01-09T17:14:50.699Z,5.90
2023-01-09T17:17:17.676Z,6.00
2023-01-09T17:19:46.004Z,6.00
2023-01-09T17:22:12.999Z,6.00
2023-01-09T17:24:58.183Z,6.10
2023-01-09T17:27:52.647Z,6.10
2023-01-09T17:30:19.621Z,6.10
2023-01-09T17:32:46.530Z,6.20
2023-01-09T17:35:13.177Z,6.20
2023-01-09T17:37:39.370Z,6.30
2023-01-09T17:40:15.021Z,6.30
2023-01-09T17:42:41.281Z,6.30
2023-01-09T17:45:08.510Z,6.40
2023-01-09T17:47:34.691Z,6.40
2023-01-09T17:50:01.029Z,6.40
2023-01-09T17:52:28.012Z,6.50
2023-01-09T17:54:54.288Z,6.50
2023-01-09T17:57:20.587Z,6.50
2023-01-09T17:59:46.788Z,6.50
2023-01-09T18:02:17.089Z,6.60
2023-01-09T18:04:44.270Z,6.60
2023-01-09T18:07:16.983Z,6.50
2023-01-09T18:09:44.751Z,6.40
2023-01-09T18:12:11.073Z,6.40
2023-01-09T18:14:38.009Z,6.40
2023-01-09T18:17:05.978Z,6.30
2023-01-09T18:19:32.956Z,6.20
2023-01-09T18:21:59.561Z,6.20
2023-01-09T18:24:25.879Z,6.20
2023-01-09T18:26:52.632Z,6.00
2023-01-09T18:29:20.726Z,6.10
2023-01-09T18:31:47.334Z,6.00
2023-01-09T18:34:13.760Z,6.00
2023-01-09T18:36:40.119Z,5.90
2023-01-09T18:39:09.108Z,5.80
2023-01-09T18:41:35.538Z,5.80
2023-01-09T18:44:02.254Z,5.60
2023-01-09T18:46:31.678Z,5.60
2023-01-09T18:48:59.510Z,5.40
2023-01-09T18:51:27.765Z,5.30
2023-01-09T18:53:56.043Z,5.20
2023-01-09T18:56:23.217Z,5.10
2023-01-09T18:58:49.894Z,4.90
2023-01-09T19:01:16.669Z,4.80
2023-01-09T19:03:44.764Z,4.60
2023-01-09T19:06:11.232Z,4.50
2023-01-09T19:08:37.757Z,4.40
2023-01-09T19:11:08.194Z,4.20
2023-01-09T19:13:41.972Z,4.10
2023-01-09T19:16:17.905Z,4.00
2023-01-09T19:18:44.572Z,3.90
2023-01-09T19:21:23.925Z,3.70
2023-01-09T19:23:50.298Z,3.60
2023-01-09T19:26:25.455Z,3.60
2023-01-09T19:28:55.684Z,3.50
2023-01-09T19:31:26.363Z,3.40
2023-01-09T19:33:53.319Z,3.30
2023-01-09T19:36:20.863Z,3.30
2023-01-09T19:38:50.446Z,3.20
2023-01-09T19:41:20.487Z,3.20
2023-01-09T19:43:47.960Z,3.20
2023-01-09T19:46:16.429Z,3.00
2023-01-09T19:48:43.604Z,3.10
2023-01-09T19:51:12.646Z,3.10
2023-01-09T19:53:39.634Z,3.00
2023-01-09T19:56:08.504Z,3.00
2023-01-09T19:58:35.098Z,2.90
2023-01-09T20:01:12.249Z,2.90
2023-01-09T20:03:45.884Z,3.10
2023-01-09T20:06:17.497Z,3.00
2023-01-09T20:08:45.304Z,3.00
2023-01-09T20:11:13.096Z,3.00
2023-01-09T20:13:40.433Z,2.90
2023-01-09T20:16:08.001Z,2.90
2023-01-09T20:18:36.997Z,2.80
2023-01-09T20:21:06.970Z,2.70
2023-01-09T20:23:36.527Z,2.70
2023-01-09T20:26:03.344Z,2.80
2023-01-09T20:28:32.058Z,3.00
2023-01-09T20:30:59.116Z,3.00
2023-01-09T20:33:26.107Z,3.10
2023-01-09T20:35:52.596Z,3.10
2023-01-09T20:38:18.867Z,3.10
2023-01-09T20:40:45.764Z,3.10
2023-01-09T20:43:12.271Z,3.20
2023-01-09T20:45:40.331Z,5.00
2023-01-09T20:48:08.517Z,3.20
2023-01-09T20:50:36.934Z,3.20
2023-01-09T20:53:05.057Z,3.20
2023-01-09T20:55:34.235Z,3.30
2023-01-09T20:58:00.469Z,3.30
2023-01-09T21:00:31.293Z,3.20
2023-01-09T21:02:58.887Z,3.30
2023-01-09T21:05:25.713Z,3.30
2023-01-09T21:07:52.079Z,3.30
2023-01-09T21:10:19.677Z,3.30
2023-01-09T21:12:47.150Z,3.30
2023-01-09T21:15:17.113Z,3.90
2023-01-09T21:17:46.358Z,3.40
2023-01-09T21:20:15.126Z,3.40
2023-01-09T21:22:41.630Z,3.50
2023-01-09T21:25:09.876Z,3.50
2023-01-09T21:27:41.818Z,3.50
2023-01-09T21:30:11.753Z,3.50
2023-01-09T21:32:38.687Z,3.60
2023-01-09T21:35:06.370Z,3.50
2023-01-09T21:37:35.003Z,3.50
2023-01-09T21:40:01.883Z,3.50
2023-01-09T21:42:47.749Z,3.60
2023-01-09T21:45:34.185Z,3.60
2023-01-09T21:48:05.452Z,3.70
2023-01-09T21:50:32.799Z,3.80
2023-01-09T21:52:59.595Z,3.80
2023-01-09T21:55:26.922Z,3.90
2023-01-09T21:57:55.293Z,3.90
2023-01-09T22:00:23.013Z,5.80
2023-01-09T22:02:49.248Z,4.00
2023-01-09T22:05:15.654Z,4.00
2023-01-09T22:07:42.072Z,4.00
2023-01-09T22:10:10.607Z,4.00
2023-01-09T22:12:37.689Z,4.00
2023-01-09T22:15:07.136Z,4.00
2023-01-09T22:17:33.783Z,4.00
2023-01-09T22:20:02.040Z,4.00
2023-01-09T22:22:28.325Z,2.10
2023-01-09T22:24:55.010Z,6.60
2023-01-09T22:27:21.315Z,4.00
2023-01-09T22:29:47.751Z,4.10
2023-01-09T22:32:14.543Z,4.10
2023-01-09T22:34:41.804Z,4.10
2023-01-09T22:37:09.317Z,4.10
2023-01-09T22:39:36.621Z,4.10
2023-01-09T22:42:02.978Z,4.10
2023-01-09T22:44:29.217Z,4.10
2023-01-09T22:46:56.752Z,4.10
2023-01-09T22:49:25.062Z,4.10
2023-01-09T22:51:53.621Z,4.10
2023-01-09T22:54:21.626Z,4.10
2023-01-09T22:56:50.035Z,4.10
2023-01-09T22:59:16.747Z,4.20
2023-01-09T23:01:43.491Z,4.10
2023-01-09T23:04:13.011Z,4.20
2023-01-09T23:06:39.383Z,4.20
2023-01-09T23:09:05.615Z,4.20
2023-01-09T23:11:50.354Z,4.20
2023-01-09T23:14:17.611Z,4.20
2023-01-09T23:16:44.408Z,4.20
2023-01-09T23:19:16.637Z,4.30
2023-01-09T23:21:43.881Z,4.30
2023-01-09T23:24:10.888Z,4.30
2023-01-09T23:26:40.229Z,4.30
2023-01-09T23:29:07.254Z,4.30
2023-01-09T23:31:34.256Z,4.30
2023-01-09T23:34:00.910Z,4.30
2023-01-09T23:36:27.160Z,4.30
2023-01-09T23:38:53.565Z,4.30
2023-01-09T23:41:22.756Z,4.30
2023-01-09T23:43:50.124Z,4.30
2023-01-09T23:46:16.441Z,4.30
2023-01-09T23:48:42.842Z,4.30
2023-01-09T23:51:09.209Z,4.30
2023-01-09T23:53:36.386Z,4.30
2023-01-09T23:56:03.136Z,5.10
2023-01-09T23:58:29.286Z,4.20
